Time;durP1;ratioP1;P1;durP2;ratioP2;P2;SDS_P1;SDS_P2;PMS_P1;PMS_P2;Temp;Humidity;BMP_temperature;BMP_pressure;BME280_temperature;BME280_humidity;BME280_pressure;Samples;Min_cycle;Max_cycle;Signal;HPM_P1;HPM_P2
2022/10/15 00:01:05;;;;;;;2.92;1.30;;;;;;;;;;5124823;28;20196;-67
2022/10/15 00:03:32;;;;;;;1.90;1.35;;;;;;;;;;5124894;28;20203;-67
2022/10/15 00:06:03;;;;;;;1.60;1.50;;;;;;;;;;5125340;28;20195;-67
2022/10/15 00:08:29;;;;;;;1.40;1.40;;;;;;;;;;5124568;28;20195;-67
2022/10/15 00:10:55;;;;;;;1.95;1.30;;;;;;;;;;5124787;28;20216;-67
2022/10/15 00:13:21;;;;;;;1.50;1.40;;;;;;;;;;5124675;28;20203;-67
2022/10/15 00:15:48;;;;;;;1.63;1.17;;;;;;;;;;5124737;27;20202;-67
2022/10/15 00:18:14;;;;;;;1.23;1.10;;;;;;;;;;5124350;27;20195;-67
2022/10/15 00:20:41;;;;;;;2.28;1.23;;;;;;;;;;5124614;28;20199;-67
2022/10/15 00:23:08;;;;;;;3.15;1.67;;;;;;;;;;5124651;28;20413;-67
2022/10/15 00:25:35;;;;;;;1.50;1.40;;;;;;;;;;5124682;28;20194;-67
2022/10/15 00:28:01;;;;;;;3.35;1.40;;;;;;;;;;5124098;28;20530;-67
2022/10/15 00:30:27;;;;;;;2.20;1.10;;;;;;;;;;5124281;28;20195;-67
2022/10/15 00:32:54;;;;;;;2.47;1.27;;;;;;;;;;5124158;28;20215;-67
2022/10/15 00:35:20;;;;;;;1.20;1.20;;;;;;;;;;5124414;28;20203;-67
2022/10/15 00:37:46;;;;;;;1.65;1.20;;;;;;;;;;5123811;28;20393;-67
2022/10/15 00:40:14;;;;;;;1.40;1.20;;;;;;;;;;5124229;28;20214;-67
2022/10/15 00:42:41;;;;;;;2.97;1.50;;;;;;;;;;5124066;28;20187;-67
2022/10/15 00:45:09;;;;;;;1.58;1.30;;;;;;;;;;5124108;28;20203;-67
2022/10/15 00:47:38;;;;;;;3.08;1.40;;;;;;;;;;5123494;28;20210;-67
2022/10/15 00:50:06;;;;;;;2.30;1.40;;;;;;;;;;5124243;27;20202;-67
2022/10/15 00:52:37;;;;;;;2.20;1.10;;;;;;;;;;5124156;28;20455;-67
2022/10/15 00:55:06;;;;;;;1.45;1.20;;;;;;;;;;5123977;28;20405;-67
2022/10/15 00:57:34;;;;;;;0.95;0.95;;;;;;;;;;5124400;28;20199;-67
2022/10/15 01:00:02;;;;;;;3.28;1.10;;;;;;;;;;5123513;28;20494;-67
2022/10/15 01:02:28;;;;;;;1.00;1.00;;;;;;;;;;5124123;28;20258;-67
2022/10/15 01:04:55;;;;;;;0.80;0.80;;;;;;;;;;5123906;28;20209;-67
2022/10/15 01:07:21;;;;;;;1.23;1.00;;;;;;;;;;5123762;28;20195;-67
2022/10/15 01:09:48;;;;;;;0.98;0.90;;;;;;;;;;5123376;28;20622;-67
2022/10/15 01:12:19;;;;;;;1.00;0.80;;;;;;;;;;5123568;28;20230;-67
2022/10/15 01:14:51;;;;;;;1.63;1.00;;;;;;;;;;5123257;28;20502;-67
2022/10/15 01:17:20;;;;;;;1.85;0.88;;;;;;;;;;5123674;28;20195;-67
2022/10/15 01:22:57;;;;;;;0.80;0.80;;;;;;;;;;5122733;28;20185;-67
2022/10/15 01:25:29;;;;;;;0.70;0.60;;;;;;;;;;5123252;28;20265;-67
2022/10/15 01:27:56;;;;;;;0.80;0.80;;;;;;;;;;5123161;28;20230;-67
2022/10/15 01:30:29;;;;;;;0.70;0.70;;;;;;;;;;5123332;28;20195;-67
2022/10/15 01:33:19;;;;;;;1.85;0.75;;;;;;;;;;5123179;28;20227;-67
2022/10/15 01:35:47;;;;;;;1.55;0.57;;;;;;;;;;5121756;28;20517;-67
2022/10/15 01:38:20;;;;;;;0.75;0.70;;;;;;;;;;5120577;28;20210;-67
2022/10/15 01:40:49;;;;;;;0.68;0.68;;;;;;;;;;5122922;28;20214;-67
2022/10/15 01:43:17;;;;;;;0.60;0.60;;;;;;;;;;5123030;28;20206;-67
2022/10/15 01:45:46;;;;;;;1.08;0.60;;;;;;;;;;5122782;28;20191;-67
2022/10/15 01:48:13;;;;;;;0.45;0.38;;;;;;;;;;5122723;28;20202;-67
2022/10/15 01:50:40;;;;;;;2.67;0.40;;;;;;;;;;5122702;28;20391;-67
2022/10/15 01:53:07;;;;;;;1.50;0.40;;;;;;;;;;5122910;28;20560;-67
2022/10/15 01:55:34;;;;;;;0.73;0.30;;;;;;;;;;5122912;28;20367;-67
2022/10/15 01:58:01;;;;;;;1.52;0.50;;;;;;;;;;5122193;28;20217;-67
2022/10/15 02:00:27;;;;;;;2.88;0.40;;;;;;;;;;5122716;28;20517;-67
2022/10/15 02:03:00;;;;;;;0.20;0.20;;;;;;;;;;5122585;28;20191;-67
2022/10/15 02:05:29;;;;;;;1.73;0.30;;;;;;;;;;5122611;28;20195;-67
2022/10/15 02:07:58;;;;;;;0.45;0.40;;;;;;;;;;5122479;28;20195;-67
2022/10/15 02:10:27;;;;;;;0.32;0.30;;;;;;;;;;5122643;28;20202;-67
2022/10/15 02:13:01;;;;;;;1.30;0.20;;;;;;;;;;5122483;28;20215;-67
2022/10/15 02:15:34;;;;;;;1.00;0.30;;;;;;;;;;5122448;28;20210;-67
2022/10/15 02:18:05;;;;;;;0.20;0.20;;;;;;;;;;5122164;28;20201;-67
2022/10/15 02:20:33;;;;;;;1.95;0.20;;;;;;;;;;5122582;28;20513;-67
2022/10/15 02:23:02;;;;;;;0.95;0.20;;;;;;;;;;5122472;28;20191;-67
2022/10/15 02:25:29;;;;;;;1.25;0.20;;;;;;;;;;5122358;28;20521;-67
2022/10/15 02:27:56;;;;;;;0.20;0.20;;;;;;;;;;5122057;28;20423;-67
2022/10/15 02:30:24;;;;;;;0.40;0.30;;;;;;;;;;5122554;28;20226;-67
2022/10/15 02:32:51;;;;;;;1.27;0.25;;;;;;;;;;5122331;28;20223;-67
2022/10/15 02:35:20;;;;;;;0.30;0.30;;;;;;;;;;5122258;28;20209;-67
2022/10/15 02:37:49;;;;;;;0.10;0.10;;;;;;;;;;5122009;28;20202;-67
2022/10/15 02:40:15;;;;;;;2.78;0.47;;;;;;;;;;5122182;28;20524;-67
2022/10/15 02:42:41;;;;;;;0.35;0.20;;;;;;;;;;5122147;28;20191;-67
2022/10/15 02:45:08;;;;;;;1.65;0.40;;;;;;;;;;5122439;28;20198;-67
2022/10/15 02:47:34;;;;;;;2.55;0.15;;;;;;;;;;5122164;28;20195;-67
2022/10/15 02:50:01;;;;;;;1.65;0.20;;;;;;;;;;5120835;28;20210;-67
2022/10/15 02:52:28;;;;;;;0.20;0.20;;;;;;;;;;5120459;28;20214;-67
2022/10/15 02:54:55;;;;;;;0.17;0.17;;;;;;;;;;5121996;28;20199;-67
2022/10/15 02:57:21;;;;;;;0.35;0.20;;;;;;;;;;5121723;28;20267;-67
2022/10/15 02:59:47;;;;;;;1.33;0.30;;;;;;;;;;5122242;28;20196;-67
2022/10/15 03:02:13;;;;;;;5.93;0.30;;;;;;;;;;5122073;28;20191;-67
2022/10/15 03:04:40;;;;;;;0.20;0.20;;;;;;;;;;5121778;28;20211;-67
2022/10/15 03:07:06;;;;;;;1.80;0.30;;;;;;;;;;5121941;28;20206;-67
2022/10/15 03:09:34;;;;;;;0.20;0.20;;;;;;;;;;5122119;28;20195;-67
2022/10/15 03:12:00;;;;;;;0.20;0.20;;;;;;;;;;5125773;28;20214;-67
2022/10/15 03:14:26;;;;;;;0.40;0.20;;;;;;;;;;5126307;28;20202;-67
2022/10/15 03:16:52;;;;;;;0.52;0.38;;;;;;;;;;5125972;28;20362;-67
2022/10/15 03:19:19;;;;;;;0.20;0.20;;;;;;;;;;5125722;28;20408;-67
2022/10/15 03:21:45;;;;;;;0.20;0.20;;;;;;;;;;5125780;28;20191;-67
2022/10/15 03:24:11;;;;;;;0.55;0.20;;;;;;;;;;5125675;28;20513;-67
2022/10/15 03:26:39;;;;;;;0.47;0.20;;;;;;;;;;5125751;28;20199;-67
2022/10/15 03:29:05;;;;;;;2.42;0.10;;;;;;;;;;5125457;28;20222;-67
2022/10/15 03:31:32;;;;;;;0.13;0.13;;;;;;;;;;5125494;28;20210;-67
2022/10/15 03:33:58;;;;;;;2.45;0.20;;;;;;;;;;5125681;28;20493;-67
2022/10/15 03:36:24;;;;;;;2.80;0.20;;;;;;;;;;5125523;27;20497;-67
2022/10/15 03:38:50;;;;;;;0.40;0.40;;;;;;;;;;5125183;28;20203;-67
2022/10/15 03:41:17;;;;;;;0.80;0.20;;;;;;;;;;5125717;28;20195;-67
2022/10/15 03:43:44;;;;;;;0.20;0.20;;;;;;;;;;5125319;28;20183;-68
2022/10/15 03:46:11;;;;;;;0.93;0.10;;;;;;;;;;5125496;27;20221;-68
2022/10/15 03:48:37;;;;;;;0.20;0.20;;;;;;;;;;5125172;28;20202;-68
2022/10/15 03:51:03;;;;;;;0.75;0.10;;;;;;;;;;5125096;28;20385;-67
2022/10/15 03:53:30;;;;;;;1.33;0.20;;;;;;;;;;5124965;28;20297;-67
2022/10/15 03:55:56;;;;;;;0.22;0.20;;;;;;;;;;5125431;28;20213;-67
2022/10/15 03:58:22;;;;;;;0.60;0.20;;;;;;;;;;5125190;28;20195;-67
2022/10/15 04:00:50;;;;;;;1.38;0.20;;;;;;;;;;5125012;28;20195;-67
2022/10/15 04:03:16;;;;;;;0.47;0.20;;;;;;;;;;5125057;28;20198;-67
2022/10/15 04:05:49;;;;;;;1.23;0.17;;;;;;;;;;5124967;28;20195;-67
2022/10/15 04:08:15;;;;;;;0.90;0.10;;;;;;;;;;5124679;28;20203;-67
2022/10/15 04:10:41;;;;;;;0.20;0.20;;;;;;;;;;5124703;28;20203;-67
2022/10/15 04:13:07;;;;;;;0.30;0.10;;;;;;;;;;5124759;28;20552;-67
2022/10/15 04:15:34;;;;;;;0.20;0.20;;;;;;;;;;5125115;28;20203;-67
2022/10/15 04:18:01;;;;;;;0.20;0.20;;;;;;;;;;5124516;28;20199;-67
2022/10/15 04:20:27;;;;;;;0.55;0.20;;;;;;;;;;5124170;28;20199;-67
2022/10/15 04:22:54;;;;;;;0.30;0.30;;;;;;;;;;5124668;28;20200;-67
2022/10/15 04:25:20;;;;;;;0.20;0.20;;;;;;;;;;5124771;28;20199;-67
2022/10/15 04:27:46;;;;;;;0.20;0.20;;;;;;;;;;5124460;28;20215;-67
2022/10/15 04:30:13;;;;;;;0.20;0.20;;;;;;;;;;5124704;28;20477;-67
2022/10/15 04:32:39;;;;;;;0.40;0.40;;;;;;;;;;5124331;28;20211;-67
2022/10/15 04:35:07;;;;;;;0.70;0.30;;;;;;;;;;5124260;28;20202;-67
2022/10/15 04:37:33;;;;;;;0.20;0.20;;;;;;;;;;5124243;28;20207;-67
2022/10/15 04:40:00;;;;;;;2.10;0.20;;;;;;;;;;5124365;28;20199;-67
2022/10/15 04:42:28;;;;;;;0.38;0.28;;;;;;;;;;5124309;28;20293;-67
2022/10/15 04:44:54;;;;;;;0.20;0.20;;;;;;;;;;5124352;28;20209;-67
2022/10/15 04:47:20;;;;;;;1.20;0.20;;;;;;;;;;5124495;28;20195;-67
2022/10/15 04:49:47;;;;;;;1.45;0.20;;;;;;;;;;5123662;28;20551;-67
2022/10/15 04:52:14;;;;;;;0.35;0.20;;;;;;;;;;5124119;28;20225;-67
2022/10/15 04:54:41;;;;;;;0.90;0.20;;;;;;;;;;5124104;28;20195;-67
2022/10/15 04:57:07;;;;;;;1.13;0.40;;;;;;;;;;5123936;28;20187;-67
2022/10/15 04:59:33;;;;;;;1.75;0.30;;;;;;;;;;5123674;28;20199;-67
2022/10/15 05:01:59;;;;;;;2.28;0.20;;;;;;;;;;5122113;28;20507;-67
2022/10/15 05:04:26;;;;;;;9.73;7.72;;;;;;;;;;5122349;28;20375;-67
2022/10/15 05:06:52;;;;;;;1.65;0.80;;;;;;;;;;5123623;28;20206;-68
2022/10/15 05:09:19;;;;;;;0.75;0.75;;;;;;;;;;5123439;28;20218;-68
2022/10/15 05:11:46;;;;;;;4.70;0.75;;;;;;;;;;5123646;27;20439;-68
2022/10/15 05:14:12;;;;;;;1.75;0.50;;;;;;;;;;5123863;28;20219;-68
2022/10/15 05:16:38;;;;;;;0.47;0.47;;;;;;;;;;5123352;28;20196;-67
2022/10/15 05:19:06;;;;;;;1.02;0.68;;;;;;;;;;5123386;28;20199;-67
2022/10/15 05:21:32;;;;;;;0.32;0.30;;;;;;;;;;5123545;28;20202;-70
2022/10/15 05:23:59;;;;;;;0.30;0.30;;;;;;;;;;5123355;28;20505;-69
2022/10/15 05:26:27;;;;;;;0.93;0.30;;;;;;;;;;5123365;28;20395;-69
2022/10/15 05:28:55;;;;;;;0.30;0.30;;;;;;;;;;5123086;28;20215;-69
2022/10/15 05:31:22;;;;;;;0.25;0.25;;;;;;;;;;5123198;28;20199;-69
2022/10/15 05:33:48;;;;;;;1.67;0.50;;;;;;;;;;5122431;28;20215;-69
2022/10/15 05:36:16;;;;;;;1.02;0.30;;;;;;;;;;5123311;28;20367;-69
2022/10/15 05:38:43;;;;;;;1.63;0.40;;;;;;;;;;5122822;28;20207;-69
2022/10/15 05:41:09;;;;;;;0.90;0.30;;;;;;;;;;5123077;28;20447;-69
2022/10/15 05:43:37;;;;;;;1.35;0.40;;;;;;;;;;5122931;28;20191;-69
2022/10/15 05:46:03;;;;;;;0.40;0.40;;;;;;;;;;5122903;28;20206;-69
2022/10/15 05:48:30;;;;;;;0.30;0.30;;;;;;;;;;5122882;28;20222;-69
2022/10/15 05:51:00;;;;;;;0.40;0.40;;;;;;;;;;5122989;28;20202;-69
2022/10/15 05:53:26;;;;;;;0.40;0.40;;;;;;;;;;5122973;28;20199;-69
2022/10/15 05:55:52;;;;;;;2.38;0.32;;;;;;;;;;5122866;28;20359;-69
2022/10/15 05:58:19;;;;;;;0.68;0.40;;;;;;;;;;5122501;28;20218;-69
2022/10/15 06:00:52;;;;;;;0.50;0.50;;;;;;;;;;5122644;28;20203;-69
2022/10/15 06:03:18;;;;;;;0.30;0.30;;;;;;;;;;5122780;28;20248;-70
2022/10/15 06:05:45;;;;;;;1.55;0.32;;;;;;;;;;5122868;27;20199;-69
2022/10/15 06:08:11;;;;;;;2.30;0.50;;;;;;;;;;5122354;28;20201;-70
2022/10/15 06:10:38;;;;;;;2.30;0.35;;;;;;;;;;5122416;28;20430;-70
2022/10/15 06:13:05;;;;;;;1.80;0.40;;;;;;;;;;5122342;28;20217;-70
2022/10/15 06:15:31;;;;;;;1.70;0.30;;;;;;;;;;5122766;28;20195;-70
2022/10/15 06:17:58;;;;;;;1.40;0.20;;;;;;;;;;5122558;28;20274;-57
2022/10/15 06:20:25;;;;;;;1.10;0.30;;;;;;;;;;5122417;28;20221;-58
2022/10/15 06:22:51;;;;;;;0.50;0.45;;;;;;;;;;5122347;28;20500;-58
2022/10/15 06:25:17;;;;;;;0.40;0.40;;;;;;;;;;5122560;28;20390;-58
2022/10/15 06:27:44;;;;;;;3.40;0.40;;;;;;;;;;5121953;28;20430;-58
2022/10/15 06:30:10;;;;;;;0.63;0.43;;;;;;;;;;5122465;28;20195;-58
2022/10/15 06:32:36;;;;;;;0.82;0.82;;;;;;;;;;5122250;28;20201;-58
2022/10/15 06:35:04;;;;;;;1.80;1.75;;;;;;;;;;5122423;28;20240;-58
2022/10/15 06:37:31;;;;;;;0.90;0.90;;;;;;;;;;5122126;28;20451;-58
2022/10/15 06:39:57;;;;;;;1.63;0.90;;;;;;;;;;5122042;28;20202;-58
2022/10/15 06:42:23;;;;;;;1.88;1.17;;;;;;;;;;5122108;28;20211;-58
2022/10/15 06:44:50;;;;;;;2.20;2.10;;;;;;;;;;5125094;28;20199;-57
2022/10/15 06:47:16;;;;;;;1.67;1.58;;;;;;;;;;5126704;28;20530;-57
2022/10/15 06:49:42;;;;;;;1.27;0.77;;;;;;;;;;5126549;28;20428;-57
2022/10/15 06:52:10;;;;;;;0.70;0.70;;;;;;;;;;5126115;28;20221;-59
2022/10/15 06:54:36;;;;;;;0.85;0.70;;;;;;;;;;5126156;28;20211;-59
2022/10/15 06:57:02;;;;;;;2.15;0.93;;;;;;;;;;5126531;28;20210;-58
2022/10/15 06:59:29;;;;;;;3.67;1.10;;;;;;;;;;5126278;28;20199;-59
2022/10/15 07:01:55;;;;;;;1.17;1.10;;;;;;;;;;5126185;28;20195;-59
2022/10/15 07:04:22;;;;;;;0.93;0.93;;;;;;;;;;5126179;28;20195;-59
2022/10/15 07:06:48;;;;;;;1.48;1.13;;;;;;;;;;5126242;28;20230;-58
2022/10/15 07:09:16;;;;;;;1.05;0.95;;;;;;;;;;5125828;28;20195;-58
2022/10/15 07:11:42;;;;;;;1.80;0.80;;;;;;;;;;5125993;28;20195;-58
2022/10/15 07:14:09;;;;;;;0.88;0.60;;;;;;;;;;5126031;28;20211;-59
2022/10/15 07:16:36;;;;;;;0.75;0.70;;;;;;;;;;5126000;28;20202;-59
2022/10/15 07:19:02;;;;;;;1.25;1.10;;;;;;;;;;5125471;28;20195;-58
2022/10/15 07:21:28;;;;;;;0.98;0.98;;;;;;;;;;5125829;28;20195;-59
2022/10/15 07:23:54;;;;;;;0.80;0.80;;;;;;;;;;5125639;27;20198;-59
2022/10/15 07:26:22;;;;;;;5.35;0.95;;;;;;;;;;5125752;28;20218;-59
2022/10/15 07:28:48;;;;;;;3.92;1.05;;;;;;;;;;5125314;28;20215;-59
2022/10/15 07:31:15;;;;;;;1.00;0.80;;;;;;;;;;5124431;28;20199;-58
2022/10/15 07:33:42;;;;;;;3.05;0.68;;;;;;;;;;5125521;28;20397;-59
2022/10/15 07:36:10;;;;;;;1.75;0.80;;;;;;;;;;5125512;28;20202;-58
2022/10/15 07:38:36;;;;;;;2.65;0.93;;;;;;;;;;5125074;28;20277;-58
2022/10/15 07:41:03;;;;;;;2.25;0.88;;;;;;;;;;5125532;28;20498;-58
2022/10/15 07:43:31;;;;;;;0.90;0.90;;;;;;;;;;5125605;28;20498;-58
2022/10/15 07:45:57;;;;;;;2.85;1.20;;;;;;;;;;5125072;28;20199;-58
2022/10/15 07:48:24;;;;;;;1.85;1.00;;;;;;;;;;5125169;28;20195;-58
2022/10/15 07:50:53;;;;;;;1.13;0.70;;;;;;;;;;5124961;28;20233;-58
2022/10/15 07:53:20;;;;;;;0.75;0.75;;;;;;;;;;5124879;28;20222;-58
2022/10/15 07:55:46;;;;;;;1.95;0.70;;;;;;;;;;5124423;28;20194;-58
2022/10/15 07:58:12;;;;;;;2.25;0.60;;;;;;;;;;5124656;28;20211;-58
2022/10/15 08:00:40;;;;;;;2.60;0.63;;;;;;;;;;5125020;28;20426;-58
2022/10/15 08:03:06;;;;;;;0.50;0.50;;;;;;;;;;5125041;28;20217;-58
2022/10/15 08:05:33;;;;;;;1.20;0.50;;;;;;;;;;5124729;27;20270;-58
2022/10/15 08:07:59;;;;;;;0.60;0.60;;;;;;;;;;5124641;28;20199;-58
2022/10/15 08:10:25;;;;;;;1.48;0.50;;;;;;;;;;5124727;28;20383;-58
2022/10/15 08:12:52;;;;;;;3.10;0.50;;;;;;;;;;5125066;28;20195;-58
2022/10/15 08:15:18;;;;;;;2.45;0.60;;;;;;;;;;5124842;28;20293;-58
2022/10/15 08:17:46;;;;;;;4.75;0.70;;;;;;;;;;5124719;28;20203;-58
2022/10/15 08:20:12;;;;;;;0.50;0.50;;;;;;;;;;5124777;28;20205;-58
2022/10/15 08:22:38;;;;;;;0.55;0.55;;;;;;;;;;5124807;28;20214;-57
2022/10/15 08:25:05;;;;;;;2.35;0.70;;;;;;;;;;5124804;28;20207;-58
2022/10/15 08:27:31;;;;;;;4.32;0.85;;;;;;;;;;5124514;28;20215;-56
2022/10/15 08:29:57;;;;;;;1.38;0.70;;;;;;;;;;5124489;28;20546;-58
2022/10/15 08:32:23;;;;;;;0.82;0.80;;;;;;;;;;5124551;28;20201;-58
2022/10/15 08:34:51;;;;;;;0.82;0.80;;;;;;;;;;5124395;28;20223;-58
2022/10/15 08:37:17;;;;;;;2.22;0.70;;;;;;;;;;5124617;28;20377;-58
2022/10/15 08:39:44;;;;;;;0.70;0.70;;;;;;;;;;5124386;28;20191;-58
2022/10/15 08:42:14;;;;;;;0.75;0.75;;;;;;;;;;5124479;28;20195;-58
2022/10/15 08:44:42;;;;;;;0.90;0.90;;;;;;;;;;5124525;28;20191;-58
2022/10/15 08:47:14;;;;;;;1.85;0.70;;;;;;;;;;5123892;28;20366;-58
2022/10/15 08:49:43;;;;;;;1.95;0.60;;;;;;;;;;5124292;28;20199;-58
2022/10/15 08:52:16;;;;;;;2.92;0.50;;;;;;;;;;5124121;27;20203;-58
2022/10/15 08:54:43;;;;;;;0.55;0.55;;;;;;;;;;5124183;28;20219;-58
2022/10/15 08:57:13;;;;;;;1.65;0.60;;;;;;;;;;5124187;28;20221;-58
2022/10/15 08:59:41;;;;;;;2.00;0.60;;;;;;;;;;5123913;28;20195;-58
2022/10/15 09:02:10;;;;;;;0.55;0.50;;;;;;;;;;5124419;28;20437;-59
2022/10/15 09:04:41;;;;;;;0.65;0.50;;;;;;;;;;5124214;27;20509;-58
2022/10/15 09:07:10;;;;;;;0.40;0.40;;;;;;;;;;5123012;28;20499;-58
2022/10/15 09:09:42;;;;;;;0.50;0.50;;;;;;;;;;5123936;28;20482;-58
2022/10/15 09:12:17;;;;;;;2.72;0.50;;;;;;;;;;5123757;28;20195;-58
2022/10/15 09:14:44;;;;;;;0.40;0.40;;;;;;;;;;5123996;28;20225;-58
2022/10/15 09:17:14;;;;;;;0.50;0.50;;;;;;;;;;5123902;28;20502;-58
2022/10/15 09:19:42;;;;;;;2.28;0.40;;;;;;;;;;5123616;27;20502;-58
2022/10/15 09:22:12;;;;;;;4.47;0.45;;;;;;;;;;5124028;28;20199;-58
2022/10/15 09:24:39;;;;;;;0.45;0.45;;;;;;;;;;5122294;28;20191;-58
2022/10/15 09:27:09;;;;;;;0.20;0.20;;;;;;;;;;5123632;28;20547;-58
2022/10/15 09:29:39;;;;;;;1.00;0.50;;;;;;;;;;5123697;28;20195;-57
2022/10/15 09:32:09;;;;;;;0.45;0.45;;;;;;;;;;5123516;27;20195;-58
2022/10/15 09:34:37;;;;;;;0.50;0.32;;;;;;;;;;5123311;28;20218;-58
2022/10/15 09:37:06;;;;;;;1.48;0.82;;;;;;;;;;5123000;28;20395;-57
2022/10/15 09:39:38;;;;;;;1.35;1.27;;;;;;;;;;5123022;28;20203;-58
2022/10/15 09:42:10;;;;;;;2.53;1.30;;;;;;;;;;5123355;28;20203;-58
2022/10/15 09:44:38;;;;;;;5.40;4.30;;;;;;;;;;5123348;28;20506;-58
2022/10/15 09:47:14;;;;;;;3.88;0.63;;;;;;;;;;5123337;28;20195;-58
2022/10/15 09:49:41;;;;;;;2.67;1.63;;;;;;;;;;5122816;27;20199;-58
2022/10/15 09:52:11;;;;;;;2.40;2.20;;;;;;;;;;5123050;28;20195;-58
2022/10/15 09:54:42;;;;;;;1.08;0.32;;;;;;;;;;5123052;28;20237;-58
2022/10/15 09:57:11;;;;;;;0.40;0.38;;;;;;;;;;5123239;27;20207;-57
2022/10/15 09:59:37;;;;;;;0.47;0.47;;;;;;;;;;5122678;28;20195;-57
2022/10/15 10:02:05;;;;;;;2.20;0.82;;;;;;;;;;5123260;28;20202;-57
2022/10/15 10:04:32;;;;;;;1.00;0.35;;;;;;;;;;5123050;28;20567;-58
2022/10/15 10:07:00;;;;;;;1.60;0.50;;;;;;;;;;5122455;28;20203;-59
2022/10/15 10:09:30;;;;;;;1.15;0.30;;;;;;;;;;5122429;28;20222;-58
2022/10/15 10:11:58;;;;;;;0.55;0.50;;;;;;;;;;5122656;28;20389;-58
2022/10/15 10:14:28;;;;;;;1.05;0.40;;;;;;;;;;5122657;28;20215;-58
2022/10/15 10:17:04;;;;;;;0.68;0.60;;;;;;;;;;5122562;28;20290;-57
2022/10/15 10:19:30;;;;;;;0.98;0.93;;;;;;;;;;5120352;28;20203;-57
2022/10/15 10:22:06;;;;;;;1.65;0.50;;;;;;;;;;5106644;28;20215;-57
2022/10/15 10:24:33;;;;;;;0.98;0.60;;;;;;;;;;5115831;28;20210;-57
2022/10/15 10:27:00;;;;;;;1.80;0.40;;;;;;;;;;5106201;28;20423;-57
2022/10/15 10:29:29;;;;;;;0.60;0.57;;;;;;;;;;5116647;28;20229;-57
2022/10/15 10:31:55;;;;;;;2.17;1.50;;;;;;;;;;5116904;28;20214;-56
2022/10/15 10:34:25;;;;;;;0.88;0.40;;;;;;;;;;5117040;28;20233;-57
2022/10/15 10:36:52;;;;;;;1.83;0.70;;;;;;;;;;5116930;28;20207;-57
2022/10/15 10:39:24;;;;;;;0.65;0.47;;;;;;;;;;5115396;28;20203;-56
2022/10/15 10:41:51;;;;;;;1.95;0.55;;;;;;;;;;5116767;28;20510;-55
2022/10/15 10:44:19;;;;;;;2.95;0.52;;;;;;;;;;5116966;28;20566;-56
2022/10/15 10:47:00;;;;;;;1.33;0.47;;;;;;;;;;5117130;28;20211;-56
2022/10/15 10:49:30;;;;;;;2.05;0.50;;;;;;;;;;5116747;28;20207;-55
2022/10/15 10:51:57;;;;;;;0.90;0.50;;;;;;;;;;5116513;28;20195;-57
2022/10/15 10:54:23;;;;;;;1.13;0.40;;;;;;;;;;5116779;28;20222;-56
2022/10/15 10:56:51;;;;;;;0.82;0.73;;;;;;;;;;5113529;28;20215;-57
2022/10/15 10:59:20;;;;;;;1.83;1.25;;;;;;;;;;5098584;28;20279;-56
2022/10/15 11:01:48;;;;;;;1.40;0.80;;;;;;;;;;5102114;28;20211;-56
2022/10/15 11:04:24;;;;;;;7.10;3.88;;;;;;;;;;5116555;28;20366;-57
2022/10/15 11:06:55;;;;;;;2.90;1.45;;;;;;;;;;5116585;28;20221;-57
2022/10/15 11:09:35;;;;;;;6.97;3.45;;;;;;;;;;5119640;28;20199;-58
2022/10/15 11:12:07;;;;;;;1.80;1.02;;;;;;;;;;5121240;28;20209;-55
2022/10/15 11:14:43;;;;;;;3.33;1.48;;;;;;;;;;5121731;28;20222;-57
2022/10/15 11:17:16;;;;;;;3.00;0.70;;;;;;;;;;5121424;28;20198;-55
2022/10/15 11:19:45;;;;;;;1.23;0.57;;;;;;;;;;5121736;28;20194;-58
2022/10/15 11:22:35;;;;;;;1.40;0.80;;;;;;;;;;5122067;28;20207;-57
2022/10/15 11:25:08;;;;;;;1.70;0.80;;;;;;;;;;5121800;28;20202;-57
2022/10/15 11:27:41;;;;;;;0.80;0.80;;;;;;;;;;5121814;28;20471;-58
2022/10/15 11:30:13;;;;;;;3.55;0.82;;;;;;;;;;5122008;28;20195;-58
2022/10/15 11:32:46;;;;;;;2.63;0.77;;;;;;;;;;5125439;28;20505;-58
2022/10/15 11:35:21;;;;;;;2.83;0.80;;;;;;;;;;5125751;28;20282;-57
2022/10/15 11:37:52;;;;;;;2.92;0.50;;;;;;;;;;5125114;28;20202;-56
2022/10/15 11:40:20;;;;;;;2.15;0.70;;;;;;;;;;5125769;27;20203;-58
2022/10/15 11:42:53;;;;;;;2.75;0.52;;;;;;;;;;5125754;28;20268;-58
2022/10/15 11:45:33;;;;;;;1.30;0.40;;;;;;;;;;5125643;27;20490;-58
2022/10/15 11:48:04;;;;;;;2.90;0.80;;;;;;;;;;5124630;28;20385;-58
2022/10/15 11:50:32;;;;;;;0.65;0.65;;;;;;;;;;5125230;28;20199;-56
2022/10/15 11:53:14;;;;;;;0.60;0.50;;;;;;;;;;5125470;27;20203;-57
2022/10/15 11:55:42;;;;;;;0.80;0.77;;;;;;;;;;5125362;28;20548;-58
2022/10/15 11:58:12;;;;;;;3.60;0.98;;;;;;;;;;5125013;28;20195;-57
2022/10/15 12:00:40;;;;;;;3.22;1.10;;;;;;;;;;5125700;28;20195;-58
2022/10/15 12:03:14;;;;;;;1.08;0.85;;;;;;;;;;5125007;28;20195;-58
2022/10/15 12:05:44;;;;;;;1.00;0.90;;;;;;;;;;5125346;28;20421;-58
2022/10/15 12:08:12;;;;;;;1.83;0.80;;;;;;;;;;5124657;27;20203;-58
2022/10/15 12:10:50;;;;;;;3.13;0.40;;;;;;;;;;5125101;27;20371;-57
2022/10/15 12:13:21;;;;;;;1.35;0.52;;;;;;;;;;5124892;28;20195;-58
2022/10/15 12:15:52;;;;;;;1.40;0.57;;;;;;;;;;5125038;28;20226;-58
2022/10/15 12:18:25;;;;;;;2.05;1.10;;;;;;;;;;5124668;28;20203;-56
2022/10/15 12:20:54;;;;;;;0.43;0.40;;;;;;;;;;5125271;28;20253;-58
2022/10/15 12:23:24;;;;;;;0.98;0.70;;;;;;;;;;5124794;28;20218;-58
2022/10/15 12:25:51;;;;;;;1.77;0.40;;;;;;;;;;5124632;28;20191;-58
2022/10/15 12:28:18;;;;;;;0.88;0.50;;;;;;;;;;5124612;28;20437;-58
2022/10/15 12:30:55;;;;;;;4.03;0.55;;;;;;;;;;5125198;28;20199;-58
2022/10/15 12:33:24;;;;;;;1.52;0.40;;;;;;;;;;5124776;28;20194;-57
2022/10/15 12:35:53;;;;;;;0.43;0.30;;;;;;;;;;5123847;27;20217;-57
2022/10/15 12:38:24;;;;;;;0.40;0.40;;;;;;;;;;5124049;27;20210;-56
2022/10/15 12:40:58;;;;;;;1.75;0.50;;;;;;;;;;5124695;28;20195;-57
2022/10/15 12:43:25;;;;;;;1.95;0.40;;;;;;;;;;5123269;28;20183;-57
2022/10/15 12:45:52;;;;;;;0.52;0.40;;;;;;;;;;5124105;28;20201;-57
2022/10/15 12:48:28;;;;;;;1.55;1.02;;;;;;;;;;5124151;28;20240;-57
2022/10/15 12:51:09;;;;;;;0.52;0.45;;;;;;;;;;5124326;28;20394;-57
2022/10/15 12:53:41;;;;;;;0.90;0.50;;;;;;;;;;5124032;28;20195;-57
2022/10/15 12:56:22;;;;;;;0.40;0.40;;;;;;;;;;5124159;28;20219;-58
2022/10/15 12:58:49;;;;;;;0.65;0.50;;;;;;;;;;5123937;28;20195;-57
2022/10/15 13:01:29;;;;;;;2.92;0.65;;;;;;;;;;5123979;28;20240;-58
2022/10/15 13:03:58;;;;;;;1.85;0.52;;;;;;;;;;5124279;28;20385;-58
2022/10/15 13:06:32;;;;;;;0.65;0.40;;;;;;;;;;5123958;28;20198;-58
2022/10/15 13:09:04;;;;;;;0.50;0.50;;;;;;;;;;5123897;28;20194;-58
2022/10/15 13:11:32;;;;;;;0.88;0.65;;;;;;;;;;5124056;28;20505;-58
2022/10/15 13:14:00;;;;;;;0.90;0.60;;;;;;;;;;5123782;28;20502;-58
2022/10/15 13:16:27;;;;;;;0.70;0.70;;;;;;;;;;5123924;28;20557;-57
2022/10/15 13:18:54;;;;;;;1.10;0.60;;;;;;;;;;5123579;28;20401;-56
2022/10/15 13:21:22;;;;;;;1.10;0.60;;;;;;;;;;5123630;28;20510;-58
2022/10/15 13:23:49;;;;;;;1.17;0.40;;;;;;;;;;5123657;28;20274;-58
2022/10/15 13:26:19;;;;;;;1.35;0.50;;;;;;;;;;5123631;28;20192;-56
2022/10/15 13:28:46;;;;;;;0.60;0.60;;;;;;;;;;5123513;28;20222;-57
2022/10/15 13:31:15;;;;;;;0.60;0.60;;;;;;;;;;5123658;27;20195;-58
2022/10/15 13:33:43;;;;;;;1.95;0.60;;;;;;;;;;5123693;28;20223;-58
2022/10/15 13:36:14;;;;;;;3.63;0.73;;;;;;;;;;5123220;27;20225;-58
2022/10/15 13:38:42;;;;;;;1.15;0.50;;;;;;;;;;5121820;28;20210;-58
2022/10/15 13:41:08;;;;;;;1.77;0.60;;;;;;;;;;5123202;28;20202;-58
2022/10/15 13:43:35;;;;;;;1.98;0.80;;;;;;;;;;5123128;28;20195;-58
2022/10/15 13:46:01;;;;;;;1.70;0.70;;;;;;;;;;5123345;28;20522;-58
2022/10/15 13:48:28;;;;;;;0.93;0.80;;;;;;;;;;5122144;28;20270;-58
2022/10/15 13:50:56;;;;;;;3.33;0.70;;;;;;;;;;5123547;28;20202;-58
2022/10/15 13:53:23;;;;;;;0.52;0.52;;;;;;;;;;5122395;28;20397;-58
2022/10/15 13:55:52;;;;;;;0.50;0.50;;;;;;;;;;5123326;28;20222;-58
2022/10/15 13:58:20;;;;;;;2.22;0.57;;;;;;;;;;5123283;28;20195;-58
2022/10/15 14:00:50;;;;;;;3.50;0.63;;;;;;;;;;5123029;28;20195;-58
2022/10/15 14:03:18;;;;;;;0.73;0.50;;;;;;;;;;5122380;28;20199;-58
2022/10/15 14:05:45;;;;;;;3.72;0.52;;;;;;;;;;5122859;28;20191;-57
2022/10/15 14:08:15;;;;;;;2.25;0.68;;;;;;;;;;5122458;28;20394;-58
2022/10/15 14:10:41;;;;;;;1.00;0.57;;;;;;;;;;5122884;28;20211;-57
2022/10/15 14:13:10;;;;;;;2.15;0.70;;;;;;;;;;5122710;28;20195;-58
2022/10/15 14:15:40;;;;;;;0.65;0.57;;;;;;;;;;5114129;28;20218;-55
2022/10/15 14:18:07;;;;;;;0.52;0.50;;;;;;;;;;5110352;28;20206;-57
2022/10/15 14:20:33;;;;;;;0.60;0.60;;;;;;;;;;5116322;28;20226;-58
2022/10/15 14:22:59;;;;;;;1.02;0.68;;;;;;;;;;5116687;28;20211;-57
2022/10/15 14:25:26;;;;;;;0.68;0.65;;;;;;;;;;5117153;28;20203;-57
2022/10/15 14:27:52;;;;;;;4.40;0.70;;;;;;;;;;5116925;28;20229;-57
2022/10/15 14:30:23;;;;;;;0.63;0.47;;;;;;;;;;5117306;28;20440;-57
2022/10/15 14:32:51;;;;;;;0.95;0.50;;;;;;;;;;5117797;28;20403;-57
2022/10/15 14:35:24;;;;;;;0.85;0.70;;;;;;;;;;5116821;28;20261;-56
2022/10/15 14:37:58;;;;;;;0.73;0.50;;;;;;;;;;5116961;28;20211;-58
2022/10/15 14:40:25;;;;;;;1.08;0.90;;;;;;;;;;5117120;28;20203;-58
2022/10/15 14:43:01;;;;;;;0.73;0.73;;;;;;;;;;5122450;28;20199;-58
2022/10/15 14:45:30;;;;;;;0.80;0.77;;;;;;;;;;5122031;28;20198;-58
2022/10/15 14:47:58;;;;;;;0.65;0.65;;;;;;;;;;5121991;28;20187;-58
2022/10/15 14:50:26;;;;;;;1.05;0.82;;;;;;;;;;5122033;28;20195;-58
2022/10/15 14:52:54;;;;;;;1.95;1.05;;;;;;;;;;5122561;28;20211;-58